createdAt,value
2018-08-28T00:00:22.683Z,9.90
2018-08-28T00:02:26.270Z,11.30
2018-08-28T00:04:29.880Z,10.20
2018-08-28T00:06:33.838Z,10.53
2018-08-28T00:08:37.381Z,9.83
2018-08-28T00:10:41.019Z,10.23
2018-08-28T00:12:44.514Z,9.70
2018-08-28T00:14:48.065Z,10.47
2018-08-28T00:16:51.704Z,11.40
2018-08-28T00:18:55.389Z,9.97
2018-08-28T00:20:59.068Z,9.80
2018-08-28T00:23:02.648Z,10.50
2018-08-28T00:25:06.278Z,9.43
2018-08-28T00:27:09.909Z,9.37
2018-08-28T00:29:13.442Z,8.43
2018-08-28T00:31:17.108Z,8.73
2018-08-28T00:33:20.669Z,10.47
2018-08-28T00:35:24.264Z,10.03
2018-08-28T00:37:27.773Z,8.97
2018-08-28T00:39:31.335Z,9.27
2018-08-28T00:41:34.958Z,9.10
2018-08-28T00:43:38.537Z,9.00
2018-08-28T00:45:42.078Z,9.00
2018-08-28T00:47:45.639Z,11.77
2018-08-28T00:49:49.439Z,12.20
2018-08-28T00:51:53.331Z,10.93
2018-08-28T00:53:56.865Z,11.60
2018-08-28T00:56:00.377Z,10.17
2018-08-28T00:58:03.958Z,10.27
2018-08-28T01:00:07.718Z,9.93
2018-08-28T01:02:11.270Z,9.63
2018-08-28T01:04:14.744Z,10.23
2018-08-28T01:06:18.286Z,9.23
2018-08-28T01:08:21.746Z,9.63
2018-08-28T01:10:25.316Z,8.10
2018-08-28T01:12:28.886Z,8.60
2018-08-28T01:14:32.433Z,8.63
2018-08-28T01:16:36.175Z,8.27
2018-08-28T01:18:39.718Z,8.00
2018-08-28T01:20:43.344Z,8.90
2018-08-28T01:22:46.872Z,10.20
2018-08-28T01:24:50.505Z,9.43
2018-08-28T01:26:54.060Z,9.37
2018-08-28T01:28:57.656Z,8.93
2018-08-28T01:31:01.194Z,8.83
2018-08-28T01:33:05.997Z,8.47
2018-08-28T01:35:10.321Z,8.63
2018-08-28T01:37:13.869Z,7.80
2018-08-28T01:39:17.602Z,9.77
2018-08-28T01:41:21.121Z,8.40
2018-08-28T01:43:25.585Z,10.03
2018-08-28T01:45:29.285Z,10.20
2018-08-28T01:47:32.815Z,9.37
2018-08-28T01:49:36.345Z,9.40
2018-08-28T01:51:40.011Z,8.80
2018-08-28T01:53:43.572Z,8.87
2018-08-28T01:55:47.110Z,11.30
2018-08-28T01:57:50.651Z,13.93
2018-08-28T01:59:54.184Z,13.03
2018-08-28T02:01:57.748Z,13.77
2018-08-28T02:04:01.301Z,16.17
2018-08-28T02:06:04.882Z,13.47
2018-08-28T02:08:08.430Z,12.53
2018-08-28T02:10:11.961Z,14.73
2018-08-28T02:12:15.565Z,17.00
2018-08-28T02:14:19.085Z,16.27
2018-08-28T02:16:23.076Z,16.87
2018-08-28T02:18:26.580Z,16.83
2018-08-28T02:20:30.090Z,15.37
2018-08-28T02:22:33.661Z,14.77
2018-08-28T02:24:37.275Z,16.63
2018-08-28T02:26:40.912Z,17.80
2018-08-28T02:28:44.473Z,17.07
2018-08-28T02:30:48.073Z,14.33
2018-08-28T02:32:52.115Z,17.33
2018-08-28T02:34:55.671Z,14.90
2018-08-28T02:36:59.275Z,16.03
2018-08-28T02:39:02.884Z,16.67
2018-08-28T02:41:06.472Z,17.53
2018-08-28T02:43:10.101Z,18.17
2018-08-28T02:45:13.670Z,15.50
2018-08-28T02:47:17.238Z,17.20
2018-08-28T02:49:20.759Z,14.40
2018-08-28T02:51:24.352Z,15.27
2018-08-28T02:53:27.926Z,14.80
2018-08-28T02:55:31.872Z,14.27
2018-08-28T02:57:35.477Z,16.23
2018-08-28T02:59:39.033Z,16.13
2018-08-28T03:01:42.535Z,13.03
2018-08-28T03:03:46.374Z,16.20
2018-08-28T03:05:49.914Z,13.57
2018-08-28T03:07:53.465Z,13.73
2018-08-28T03:09:56.952Z,14.20
2018-08-28T03:12:00.508Z,18.17
2018-08-28T03:14:04.056Z,18.83
2018-08-28T03:16:07.698Z,17.47
2018-08-28T03:18:11.732Z,16.00
2018-08-28T03:20:15.295Z,15.07
2018-08-28T03:22:18.826Z,12.97
2018-08-28T03:24:22.373Z,14.57
2018-08-28T03:26:25.894Z,12.53
2018-08-28T03:28:29.383Z,12.70
2018-08-28T03:30:32.941Z,14.67
2018-08-28T03:32:36.474Z,13.50
2018-08-28T03:34:39.972Z,15.67
2018-08-28T03:36:43.530Z,15.57
2018-08-28T03:38:47.077Z,12.80
2018-08-28T03:40:50.660Z,13.37
2018-08-28T03:42:54.274Z,13.07
2018-08-28T03:44:58.162Z,19.23
2018-08-28T03:47:02.636Z,18.13
2018-08-28T03:49:06.666Z,17.63
2018-08-28T03:51:10.445Z,18.13
2018-08-28T03:53:14.012Z,14.97
2018-08-28T03:55:17.569Z,15.37
2018-08-28T03:57:21.607Z,13.90
2018-08-28T03:59:25.153Z,14.10
2018-08-28T04:01:28.699Z,13.63
2018-08-28T04:03:32.340Z,12.17
2018-08-28T04:05:36.052Z,12.80
2018-08-28T04:07:39.641Z,12.40
2018-08-28T04:09:43.203Z,11.60
2018-08-28T04:11:46.740Z,12.40
2018-08-28T04:13:50.360Z,11.43
2018-08-28T04:15:53.902Z,12.10
2018-08-28T04:17:57.457Z,12.70
2018-08-28T04:20:00.939Z,12.67
2018-08-28T04:22:04.547Z,13.53
2018-08-28T04:24:08.168Z,12.47
2018-08-28T04:26:11.770Z,12.13
2018-08-28T04:28:15.276Z,12.13
2018-08-28T04:30:18.911Z,12.67
2018-08-28T04:32:22.460Z,12.70
2018-08-28T04:34:26.059Z,13.50
2018-08-28T04:36:29.743Z,12.70
2018-08-28T04:38:33.369Z,11.73
2018-08-28T04:40:37.005Z,13.17
2018-08-28T04:42:40.658Z,12.93
2018-08-28T04:44:44.285Z,14.63
2018-08-28T04:46:47.899Z,14.17
2018-08-28T04:48:51.553Z,14.73
2018-08-28T04:50:55.270Z,13.67
2018-08-28T04:52:59.124Z,15.17
2018-08-28T04:55:02.757Z,13.47
2018-08-28T04:57:06.558Z,12.03
2018-08-28T04:59:10.260Z,11.60
2018-08-28T05:01:13.880Z,10.33
2018-08-28T05:03:17.532Z,10.57
2018-08-28T05:05:21.135Z,9.30
2018-08-28T05:07:24.752Z,9.40
2018-08-28T05:09:28.434Z,9.67
2018-08-28T05:11:32.037Z,8.50
2018-08-28T05:13:42.326Z,8.67
2018-08-28T05:15:45.999Z,8.13
2018-08-28T05:17:49.805Z,9.03
2018-08-28T05:19:53.808Z,8.77
2018-08-28T05:21:57.512Z,7.67
2018-08-28T05:24:01.209Z,8.37
2018-08-28T05:26:04.872Z,7.77
2018-08-28T05:28:08.524Z,8.90
2018-08-28T05:30:12.225Z,8.90
2018-08-28T05:32:15.876Z,8.73
2018-08-28T05:34:19.486Z,8.50
2018-08-28T05:36:23.149Z,8.97
2018-08-28T05:38:26.779Z,7.83
2018-08-28T05:40:30.433Z,7.97
2018-08-28T05:42:34.185Z,8.93
2018-08-28T05:44:37.851Z,8.10
2018-08-28T05:46:42.044Z,8.80
2018-08-28T05:48:45.712Z,9.07
2018-08-28T05:50:49.311Z,8.53
2018-08-28T05:52:52.960Z,9.07
2018-08-28T05:54:56.543Z,8.20
2018-08-28T05:57:00.361Z,8.80
2018-08-28T05:59:03.928Z,8.40
2018-08-28T06:01:07.944Z,7.73
2018-08-28T06:03:11.641Z,6.63
2018-08-28T06:05:15.469Z,7.43
2018-08-28T06:07:19.124Z,7.13
2018-08-28T06:09:22.713Z,7.70
2018-08-28T06:11:26.312Z,8.40
2018-08-28T06:13:30.501Z,6.97
2018-08-28T06:15:34.163Z,6.57
2018-08-28T06:17:37.826Z,7.53
2018-08-28T06:19:41.565Z,8.13
2018-08-28T06:21:45.690Z,7.70
2018-08-28T06:23:49.406Z,8.27
2018-08-28T06:25:53.379Z,8.37
2018-08-28T06:27:57.344Z,7.90
2018-08-28T06:30:01.192Z,8.50
2018-08-28T06:32:05.494Z,8.00
2018-08-28T06:34:09.329Z,7.43
2018-08-28T06:36:13.200Z,7.93
2018-08-28T06:38:17.144Z,7.20
2018-08-28T06:40:21.188Z,6.83
2018-08-28T06:42:24.984Z,6.73
2018-08-28T06:44:28.608Z,6.63
2018-08-28T06:46:32.207Z,5.90
2018-08-28T06:48:35.945Z,5.70
2018-08-28T06:50:41.781Z,5.60
2018-08-28T06:52:45.538Z,5.30
2018-08-28T06:54:49.196Z,5.57
2018-08-28T06:56:52.876Z,5.27
2018-08-28T06:58:56.765Z,5.03
2018-08-28T07:01:00.332Z,4.97
2018-08-28T07:03:04.075Z,5.53
2018-08-28T07:05:08.057Z,5.87
2018-08-28T07:07:11.622Z,5.47
2018-08-28T07:09:15.135Z,5.20
2018-08-28T07:11:18.758Z,5.27
2018-08-28T07:13:22.308Z,5.00
2018-08-28T07:15:25.987Z,6.53
2018-08-28T07:17:29.834Z,5.80
2018-08-28T07:19:33.371Z,6.57
2018-08-28T07:21:36.938Z,6.70
2018-08-28T07:23:40.499Z,6.30
2018-08-28T07:25:44.217Z,5.43
2018-08-28T07:27:47.928Z,5.80
2018-08-28T07:29:51.501Z,5.43
2018-08-28T07:31:55.177Z,5.17
2018-08-28T07:33:58.848Z,6.43
2018-08-28T07:36:02.490Z,5.47
2018-08-28T07:38:06.105Z,5.60
2018-08-28T07:40:09.920Z,5.60
2018-08-28T07:42:13.601Z,4.70
2018-08-28T07:44:19.554Z,5.47
2018-08-28T07:46:24.453Z,5.37
2018-08-28T07:48:28.233Z,5.30
2018-08-28T07:50:32.976Z,5.63
2018-08-28T07:52:36.788Z,5.20
2018-08-28T07:54:40.740Z,5.20
2018-08-28T07:56:44.341Z,5.17
2018-08-28T07:58:47.989Z,5.93
2018-08-28T08:00:51.817Z,5.23
2018-08-28T08:02:56.157Z,4.73
2018-08-28T08:04:59.775Z,4.60
2018-08-28T08:07:03.474Z,5.23
2018-08-28T08:09:09.800Z,5.97
2018-08-28T08:11:13.492Z,5.83
2018-08-28T08:13:17.614Z,5.17
2018-08-28T08:15:21.179Z,5.90
2018-08-28T08:17:24.802Z,5.00
2018-08-28T08:19:28.479Z,4.47
2018-08-28T08:21:32.222Z,4.70
2018-08-28T08:23:35.822Z,4.67
2018-08-28T08:25:40.070Z,4.90
2018-08-28T08:27:43.802Z,5.23
2018-08-28T08:29:47.523Z,4.67
2018-08-28T08:31:51.131Z,4.83
2018-08-28T08:33:58.549Z,5.60
2018-08-28T08:36:04.762Z,4.93
2018-08-28T08:38:09.925Z,4.47
2018-08-28T08:40:13.527Z,4.80
2018-08-28T08:42:17.167Z,4.70
2018-08-28T08:44:20.823Z,5.63
2018-08-28T08:46:24.512Z,4.83
2018-08-28T08:48:28.277Z,5.07
2018-08-28T08:50:32.021Z,4.53
2018-08-28T08:52:35.713Z,4.70
2018-08-28T08:54:39.431Z,4.97
2018-08-28T08:56:43.033Z,4.77
2018-08-28T08:58:48.535Z,4.97
2018-08-28T09:00:53.579Z,5.47
2018-08-28T09:02:57.591Z,5.23
2018-08-28T09:05:01.335Z,4.80
2018-08-28T09:07:05.389Z,5.00
2018-08-28T09:09:08.961Z,4.83
2018-08-28T09:11:12.662Z,4.87
2018-08-28T09:13:16.457Z,4.70
2018-08-28T09:15:20.164Z,4.40
2018-08-28T09:17:23.676Z,5.17
2018-08-28T09:19:27.524Z,4.63
2018-08-28T09:21:31.201Z,4.93
2018-08-28T09:23:34.846Z,4.73
2018-08-28T09:25:38.720Z,4.70
2018-08-28T09:27:42.290Z,5.50
2018-08-28T09:29:46.016Z,4.43
2018-08-28T09:31:49.619Z,4.80
2018-08-28T09:33:53.250Z,5.47
2018-08-28T09:35:56.998Z,4.90
2018-08-28T09:38:00.566Z,5.00
2018-08-28T09:40:05.731Z,4.67
2018-08-28T09:42:09.735Z,4.87
2018-08-28T09:44:13.885Z,4.80
2018-08-28T09:46:17.594Z,5.63
2018-08-28T09:48:21.276Z,4.63
2018-08-28T09:50:25.153Z,5.73
2018-08-28T09:52:28.960Z,4.87
2018-08-28T09:54:32.556Z,4.80
2018-08-28T09:56:36.304Z,5.20
2018-08-28T09:58:40.496Z,4.73
2018-08-28T10:00:51.183Z,5.00
2018-08-28T10:02:55.768Z,4.90
2018-08-28T10:04:59.361Z,4.90
2018-08-28T10:07:03.748Z,4.37
2018-08-28T10:09:11.061Z,5.17
2018-08-28T10:11:14.833Z,4.97
2018-08-28T10:13:18.528Z,4.77
2018-08-28T10:15:22.148Z,5.20
2018-08-28T10:17:26.339Z,5.47
2018-08-28T10:19:30.068Z,4.70
2018-08-28T10:21:34.344Z,5.60
2018-08-28T10:23:37.895Z,5.00
2018-08-28T10:25:41.480Z,5.50
2018-08-28T10:27:45.019Z,5.07
2018-08-28T10:29:48.609Z,5.43
2018-08-28T10:31:52.390Z,5.77
2018-08-28T10:33:55.971Z,5.27
2018-08-28T10:35:59.563Z,5.20
2018-08-28T10:38:05.931Z,5.60
2018-08-28T10:40:09.806Z,4.87
2018-08-28T10:42:13.329Z,5.33
2018-08-28T10:44:16.903Z,5.03
2018-08-28T10:46:20.839Z,4.50
2018-08-28T10:48:24.559Z,4.77
2018-08-28T10:50:28.128Z,4.60
2018-08-28T10:52:31.752Z,5.10
2018-08-28T10:54:35.414Z,4.87
2018-08-28T10:56:39.069Z,4.93
2018-08-28T10:58:42.742Z,5.27
2018-08-28T11:00:47.377Z,5.53
2018-08-28T11:02:50.954Z,5.73
2018-08-28T11:04:54.516Z,5.57
2018-08-28T11:06:58.076Z,4.97
2018-08-28T11:09:01.618Z,5.17
2018-08-28T11:11:06.558Z,4.70
2018-08-28T11:13:10.617Z,5.33
2018-08-28T11:15:14.179Z,5.23
2018-08-28T11:17:17.841Z,5.40
2018-08-28T11:19:21.431Z,5.60
2018-08-28T11:21:24.984Z,4.70
2018-08-28T11:23:28.501Z,5.13
2018-08-28T11:25:32.041Z,5.17
2018-08-28T11:27:35.664Z,5.17
2018-08-28T11:29:39.293Z,5.77
2018-08-28T11:31:42.864Z,5.13
2018-08-28T11:33:46.469Z,4.67
2018-08-28T11:35:50.105Z,4.97
2018-08-28T11:37:53.848Z,5.30
2018-08-28T11:39:57.925Z,4.93
2018-08-28T11:42:01.525Z,5.03
2018-08-28T11:44:05.105Z,5.40
2018-08-28T11:46:10.705Z,5.53
2018-08-28T11:48:20.957Z,5.80
2018-08-28T11:50:24.711Z,5.60
2018-08-28T11:52:28.415Z,4.93
2018-08-28T11:54:32.508Z,5.67
2018-08-28T11:56:36.509Z,5.13
2018-08-28T11:58:44.694Z,5.87
2018-08-28T12:00:48.793Z,5.57
2018-08-28T12:02:59.591Z,6.00
2018-08-28T12:05:03.444Z,6.13
2018-08-28T12:07:07.973Z,5.10
2018-08-28T12:09:12.077Z,5.50
2018-08-28T12:11:15.900Z,5.60
2018-08-28T12:13:20.178Z,5.83
2018-08-28T12:15:24.061Z,5.43
2018-08-28T12:17:27.792Z,6.23
2018-08-28T12:19:31.676Z,5.70
2018-08-28T12:21:35.619Z,5.67
2018-08-28T12:23:40.588Z,5.70
2018-08-28T12:25:44.312Z,5.63
2018-08-28T12:27:47.987Z,5.20
2018-08-28T12:29:51.846Z,6.07
2018-08-28T12:31:55.524Z,5.77
2018-08-28T12:33:59.370Z,5.07
2018-08-28T12:36:03.980Z,5.73
2018-08-28T12:38:07.902Z,6.10
2018-08-28T12:40:11.686Z,5.27
2018-08-28T12:42:15.426Z,5.23
2018-08-28T12:44:19.007Z,5.93
2018-08-28T12:46:22.743Z,6.43
2018-08-28T12:48:26.626Z,6.00
2018-08-28T12:50:30.466Z,5.60
2018-08-28T12:52:35.522Z,6.70
2018-08-28T12:54:39.244Z,6.03
2018-08-28T12:56:43.130Z,6.13
2018-08-28T12:58:47.022Z,7.13
2018-08-28T13:00:50.786Z,5.60
2018-08-28T13:02:54.417Z,6.37
2018-08-28T13:04:58.055Z,5.57
2018-08-28T13:07:01.661Z,6.07
2018-08-28T13:09:06.600Z,5.90
2018-08-28T13:11:10.398Z,5.60
2018-08-28T13:13:14.031Z,5.87
2018-08-28T13:15:17.742Z,6.23
2018-08-28T13:17:21.731Z,6.07
2018-08-28T13:19:25.367Z,5.67
2018-08-28T13:21:29.052Z,6.10
2018-08-28T13:23:32.704Z,5.57
2018-08-28T13:25:36.432Z,6.03
2018-08-28T13:27:40.189Z,5.77
2018-08-28T13:29:43.899Z,5.40
2018-08-28T13:31:47.825Z,6.13
2018-08-28T13:33:51.391Z,6.07
2018-08-28T13:35:55.082Z,6.50
2018-08-28T13:37:58.853Z,6.37
2018-08-28T13:40:02.523Z,5.77
2018-08-28T13:42:06.540Z,5.77
2018-08-28T13:44:10.503Z,6.13
2018-08-28T13:46:14.107Z,6.63
2018-08-28T13:48:17.794Z,5.70
2018-08-28T13:50:21.913Z,6.27
2018-08-28T13:52:25.529Z,6.57
2018-08-28T13:54:29.219Z,6.10
2018-08-28T13:56:32.906Z,6.73
2018-08-28T13:58:36.456Z,6.63
2018-08-28T14:00:40.104Z,6.27
2018-08-28T14:02:44.006Z,6.67
2018-08-28T14:04:47.670Z,6.20
2018-08-28T14:06:51.265Z,6.73
2018-08-28T14:08:54.769Z,5.70
2018-08-28T14:10:58.463Z,5.90
2018-08-28T14:13:02.157Z,6.50
2018-08-28T14:15:06.996Z,6.20
2018-08-28T14:17:10.759Z,6.30
2018-08-28T14:19:14.289Z,7.00
2018-08-28T14:21:17.925Z,7.33
2018-08-28T14:23:21.517Z,6.27
2018-08-28T14:25:25.118Z,6.77
2018-08-28T14:27:29.472Z,6.10
2018-08-28T14:29:33.153Z,7.47
2018-08-28T14:31:36.787Z,6.40
2018-08-28T14:33:40.499Z,5.83
2018-08-28T14:35:44.098Z,6.60
2018-08-28T14:37:47.862Z,5.77
2018-08-28T14:39:51.401Z,6.50
2018-08-28T14:41:54.889Z,6.30
2018-08-28T14:43:58.401Z,6.40
2018-08-28T14:46:01.949Z,6.73
2018-08-28T14:48:05.513Z,6.23
2018-08-28T14:50:11.621Z,6.33
2018-08-28T14:52:15.259Z,6.53
2018-08-28T14:54:18.910Z,6.30
2018-08-28T14:56:22.637Z,6.00
2018-08-28T14:58:26.205Z,5.83
2018-08-28T15:00:29.995Z,6.70
2018-08-28T15:02:33.767Z,6.40
2018-08-28T15:04:37.297Z,6.00
2018-08-28T15:06:41.142Z,6.57
2018-08-28T15:08:44.740Z,6.90
2018-08-28T15:10:48.313Z,6.90
2018-08-28T15:12:52.032Z,6.20
2018-08-28T15:14:55.572Z,6.33
2018-08-28T15:16:59.468Z,6.73
2018-08-28T15:19:03.155Z,6.40
2018-08-28T15:21:07.129Z,5.97
2018-08-28T15:23:10.802Z,5.73
2018-08-28T15:25:14.398Z,6.40
2018-08-28T15:27:18.010Z,6.43
2018-08-28T15:29:21.655Z,5.57
2018-08-28T15:31:25.208Z,6.70
2018-08-28T15:33:28.732Z,6.67
2018-08-28T15:35:32.310Z,6.53
2018-08-28T15:37:35.896Z,6.47
2018-08-28T15:39:39.407Z,6.33
2018-08-28T15:41:42.900Z,6.90
2018-08-28T15:43:46.455Z,6.40
2018-08-28T15:45:50.013Z,6.43
2018-08-28T15:47:53.641Z,6.97
2018-08-28T15:49:57.136Z,6.30
2018-08-28T15:52:00.645Z,6.47
2018-08-28T15:54:04.444Z,6.40
2018-08-28T15:56:07.947Z,6.60
2018-08-28T15:58:11.538Z,6.40
2018-08-28T16:00:15.009Z,7.27
2018-08-28T16:02:18.614Z,6.87
2018-08-28T16:04:22.255Z,6.33
2018-08-28T16:06:25.819Z,7.13
2018-08-28T16:08:29.349Z,6.03
2018-08-28T16:10:32.843Z,6.47
2018-08-28T16:12:36.385Z,7.57
2018-08-28T16:14:39.950Z,6.43
2018-08-28T16:16:44.085Z,6.70
2018-08-28T16:18:47.652Z,7.17
2018-08-28T16:20:51.234Z,6.27
2018-08-28T16:22:57.177Z,6.10
2018-08-28T16:25:00.727Z,7.03
2018-08-28T16:27:04.215Z,6.90
2018-08-28T16:29:07.866Z,7.23
2018-08-28T16:31:11.495Z,6.50
2018-08-28T16:33:15.012Z,6.60
2018-08-28T16:35:18.617Z,6.90
2018-08-28T16:37:22.124Z,7.03
2018-08-28T16:39:25.639Z,6.83
2018-08-28T16:41:29.380Z,6.63
2018-08-28T16:43:32.949Z,6.60
2018-08-28T16:45:37.417Z,6.43
2018-08-28T16:47:40.905Z,6.43
2018-08-28T16:49:44.480Z,6.97
2018-08-28T16:51:47.984Z,7.07
2018-08-28T16:53:51.533Z,6.50
2018-08-28T16:55:55.181Z,6.23
2018-08-28T16:57:58.784Z,6.73
2018-08-28T17:00:02.269Z,6.47
2018-08-28T17:02:06.309Z,6.40
2018-08-28T17:04:09.917Z,7.07
2018-08-28T17:06:13.458Z,6.40
2018-08-28T17:08:17.016Z,7.00
2018-08-28T17:10:20.553Z,6.20
2018-08-28T17:12:24.119Z,7.27
2018-08-28T17:14:27.852Z,6.73
2018-08-28T17:16:31.366Z,6.27
2018-08-28T17:18:34.960Z,7.03
2018-08-28T17:20:38.424Z,5.87
2018-08-28T17:22:41.922Z,6.60
2018-08-28T17:24:45.510Z,6.10
2018-08-28T17:26:49.196Z,5.83
2018-08-28T17:28:52.757Z,5.93
2018-08-28T17:30:56.433Z,6.47
2018-08-28T17:32:59.991Z,6.53
2018-08-28T17:35:03.510Z,6.57
2018-08-28T17:37:07.145Z,5.57
2018-08-28T17:39:10.827Z,5.40
2018-08-28T17:41:14.383Z,6.40
2018-08-28T17:43:17.931Z,6.10
2018-08-28T17:45:21.486Z,5.80
2018-08-28T17:47:25.005Z,5.57
2018-08-28T17:49:28.589Z,6.10
2018-08-28T17:51:32.063Z,5.97
2018-08-28T17:53:35.591Z,5.33
2018-08-28T17:55:39.128Z,5.77
2018-08-28T17:57:42.709Z,6.03
2018-08-28T17:59:46.250Z,6.20
2018-08-28T18:01:49.767Z,6.33
2018-08-28T18:03:53.386Z,6.33
2018-08-28T18:05:57.076Z,6.27
2018-08-28T18:08:00.598Z,6.13
2018-08-28T18:10:04.551Z,6.13
2018-08-28T18:12:08.125Z,6.67
2018-08-28T18:14:11.634Z,6.40
2018-08-28T18:16:15.168Z,5.70
2018-08-28T18:18:18.729Z,6.27
2018-08-28T18:20:22.276Z,6.20
2018-08-28T18:22:25.825Z,6.30
2018-08-28T18:24:29.546Z,6.17
2018-08-28T18:26:33.088Z,6.13
2018-08-28T18:28:36.618Z,6.83
2018-08-28T18:30:40.603Z,6.87
2018-08-28T18:32:44.088Z,6.10
2018-08-28T18:34:47.636Z,7.00
2018-08-28T18:36:51.172Z,6.23
2018-08-28T18:38:54.717Z,7.37
2018-08-28T18:40:58.350Z,6.03
2018-08-28T18:43:02.063Z,6.40
2018-08-28T18:45:05.671Z,6.00
2018-08-28T18:47:09.197Z,6.70
2018-08-28T18:49:12.732Z,6.80
2018-08-28T18:51:16.272Z,7.13
2018-08-28T18:53:19.764Z,7.00
2018-08-28T18:55:23.343Z,6.80
2018-08-28T18:57:26.851Z,6.63
2018-08-28T18:59:30.433Z,6.70
2018-08-28T19:01:33.896Z,6.90
2018-08-28T19:03:37.501Z,6.30
2018-08-28T19:05:40.966Z,6.10
2018-08-28T19:07:44.615Z,6.30
2018-08-28T19:09:48.211Z,6.80
2018-08-28T19:11:51.730Z,6.23
2018-08-28T19:13:55.256Z,6.50
2018-08-28T19:15:58.832Z,7.00
2018-08-28T19:18:02.411Z,6.57
2018-08-28T19:20:05.983Z,6.00
2018-08-28T19:22:09.649Z,7.13
2018-08-28T19:24:13.185Z,6.77
2018-08-28T19:26:16.776Z,6.63
2018-08-28T19:28:20.701Z,6.10
2018-08-28T19:30:24.354Z,6.70
2018-08-28T19:32:27.964Z,6.90
2018-08-28T19:34:31.541Z,6.57
2018-08-28T19:36:35.081Z,6.90
2018-08-28T19:38:38.578Z,6.37
2018-08-28T19:40:42.110Z,7.47
2018-08-28T19:42:45.632Z,6.73
2018-08-28T19:44:49.200Z,7.17
2018-08-28T19:46:53.464Z,6.93
2018-08-28T19:48:56.978Z,7.23
2018-08-28T19:51:00.536Z,7.17
2018-08-28T19:53:04.126Z,7.40
2018-08-28T19:55:07.701Z,7.47
2018-08-28T19:57:11.252Z,6.90
2018-08-28T19:59:14.772Z,7.33
2018-08-28T20:01:18.313Z,6.83
2018-08-28T20:03:21.912Z,7.70
2018-08-28T20:05:25.435Z,7.33
2018-08-28T20:07:28.956Z,6.90
2018-08-28T20:09:32.518Z,7.07
2018-08-28T20:11:36.017Z,7.43
2018-08-28T20:13:39.512Z,7.50
2018-08-28T20:15:43.030Z,6.80
2018-08-28T20:17:46.598Z,7.37
2018-08-28T20:19:50.135Z,8.30
2018-08-28T20:21:53.704Z,7.37
2018-08-28T20:23:57.201Z,6.87
2018-08-28T20:26:00.730Z,7.70
2018-08-28T20:28:04.280Z,7.50
2018-08-28T20:30:08.073Z,6.83
2018-08-28T20:32:11.597Z,7.73
2018-08-28T20:34:15.141Z,7.37
2018-08-28T20:36:18.866Z,7.70
2018-08-28T20:38:22.462Z,7.43
2018-08-28T20:40:26.048Z,6.87
2018-08-28T20:42:29.548Z,7.37
2018-08-28T20:44:33.144Z,7.87
2018-08-28T20:46:36.725Z,6.67
2018-08-28T20:48:40.291Z,8.13
2018-08-28T20:50:43.842Z,7.00
2018-08-28T20:52:47.433Z,7.70
2018-08-28T20:54:50.933Z,7.73
2018-08-28T20:56:54.483Z,7.40
2018-08-28T20:59:04.920Z,8.13
2018-08-28T21:01:08.462Z,7.10
2018-08-28T21:03:12.358Z,8.27
2018-08-28T21:05:20.008Z,8.33
2018-08-28T21:07:23.536Z,8.00
2018-08-28T21:09:27.018Z,7.80
2018-08-28T21:11:30.529Z,7.17
2018-08-28T21:13:34.067Z,7.87
2018-08-28T21:15:37.633Z,7.73
2018-08-28T21:17:41.204Z,7.97
2018-08-28T21:19:44.747Z,7.60
2018-08-28T21:21:48.265Z,7.53
2018-08-28T21:23:51.810Z,7.70
2018-08-28T21:25:55.439Z,7.73
2018-08-28T21:27:59.011Z,7.60
2018-08-28T21:30:02.589Z,7.90
2018-08-28T21:32:06.581Z,7.43
2018-08-28T21:34:10.040Z,7.43
2018-08-28T21:36:13.610Z,8.20
2018-08-28T21:38:17.166Z,7.37
2018-08-28T21:40:20.715Z,7.87
2018-08-28T21:42:24.288Z,8.10
2018-08-28T21:44:27.794Z,8.27
2018-08-28T21:46:31.351Z,7.90
2018-08-28T21:48:34.838Z,8.00
2018-08-28T21:50:38.373Z,8.33
2018-08-28T21:52:41.886Z,7.97
2018-08-28T21:54:45.443Z,7.83
2018-08-28T21:56:49.001Z,7.63
2018-08-28T21:58:52.498Z,7.30
2018-08-28T22:01:01.460Z,7.83
2018-08-28T22:03:05.024Z,8.57
2018-08-28T22:05:08.901Z,7.30
2018-08-28T22:07:17.720Z,7.30
2018-08-28T22:09:21.253Z,7.70
2018-08-28T22:11:24.776Z,7.63
2018-08-28T22:13:28.373Z,7.77
2018-08-28T22:15:32.020Z,7.77
2018-08-28T22:17:35.608Z,8.13
2018-08-28T22:19:39.100Z,7.70
2018-08-28T22:21:43.012Z,7.77
2018-08-28T22:23:46.913Z,8.47
2018-08-28T22:25:50.464Z,7.67
2018-08-28T22:27:54.005Z,7.80
2018-08-28T22:29:57.565Z,7.67
2018-08-28T22:32:01.050Z,7.53
2018-08-28T22:34:04.589Z,8.03
2018-08-28T22:36:08.057Z,8.13
2018-08-28T22:38:11.658Z,8.37
2018-08-28T22:40:15.187Z,8.90
2018-08-28T22:42:18.660Z,8.33
2018-08-28T22:44:22.215Z,7.77
2018-08-28T22:46:25.756Z,8.50
2018-08-28T22:48:29.273Z,8.50
2018-08-28T22:50:32.733Z,7.83
2018-08-28T22:52:36.284Z,9.00
2018-08-28T22:54:39.760Z,8.27
2018-08-28T22:56:43.305Z,8.37
2018-08-28T22:58:46.883Z,8.57
2018-08-28T23:00:50.406Z,9.03
2018-08-28T23:02:55.276Z,8.97
2018-08-28T23:04:58.785Z,8.47
2018-08-28T23:07:02.326Z,8.57
2018-08-28T23:09:06.948Z,9.23
2018-08-28T23:11:10.493Z,8.33
2018-08-28T23:13:14.074Z,8.97
2018-08-28T23:15:17.617Z,8.33
2018-08-28T23:17:21.176Z,8.37
2018-08-28T23:19:24.740Z,8.87
2018-08-28T23:21:28.300Z,7.80
2018-08-28T23:23:31.801Z,8.50
2018-08-28T23:25:35.320Z,8.53
2018-08-28T23:27:38.871Z,9.03
2018-08-28T23:29:42.416Z,8.33
2018-08-28T23:31:45.969Z,8.37
2018-08-28T23:33:49.488Z,9.17
2018-08-28T23:35:53.022Z,9.03
2018-08-28T23:37:56.497Z,8.83
2018-08-28T23:40:00.048Z,9.20
2018-08-28T23:42:03.600Z,8.70
2018-08-28T23:44:07.099Z,8.80
2018-08-28T23:46:10.576Z,9.20
2018-08-28T23:48:14.078Z,8.60
2018-08-28T23:50:17.969Z,7.90
2018-08-28T23:52:21.550Z,8.77
2018-08-28T23:54:25.051Z,9.13
2018-08-28T23:56:28.573Z,9.07
2018-08-28T23:58:32.090Z,8.30
